Blackstone River @ Woonsocket, Ri

Blackstone River at Woonsocket
 Total Drainage Area: 416 sq. miles 
 Drainage Area Controlled by Corps Dams: 28 sq. miles (7%) 
 Warning Flow/Stage: 4,400 cfs / 7.0 feet 
 Flood Flow/Stage: 6,670 cfs / 9.0 feet 
Date Time
(Eastern)
Stage
(ft)
Flow
(cfs)
CSM
(cfs / sq. mi.)
Jun-24 11:30 pm 2.21 570 1.4
Jun-24 10:30 pm 2.27 597 1.4
Jun-24 09:30 pm 2.30 610 1.5
Jun-24 08:30 pm 2.32 619 1.5
Jun-24 07:30 pm 2.35 632 1.5
Jun-24 06:30 pm 2.37 642 1.5
Jun-24 05:30 pm 2.40 655 1.6
Jun-24 04:30 pm 2.44 674 1.6
Jun-24 03:30 pm 2.49 698 1.7
Jun-24 02:30 pm 2.69 797 1.9
Jun-24 01:30 pm 3.08 1,009 2.4
Jun-24 12:30 pm 3.55 1,299 3.1
Jun-24 11:30 am 4.04 1,641 4.0
Jun-24 10:30 am 3.81 1,475 3.6
Jun-24 09:30 am 2.57 736 1.8
Jun-24 08:30 am 2.58 741 1.8
Jun-24 07:30 am 2.61 756 1.8
Jun-24 06:30 am 2.64 771 1.9
Jun-24 05:30 am 2.66 781 1.9
Jun-24 04:30 am 2.68 792 1.9
Jun-24 03:30 am 2.70 802 1.9
Jun-24 02:30 am 2.72 812 2.0
Jun-24 01:30 am 2.74 822 2.0
Jun-24 12:30 am 2.76 833 2.0
Jun-23 11:30 pm 2.78 843 2.0
Report Generated June 25, 2024 04:26 am